Time;durP1;ratioP1;P1;durP2;ratioP2;P2;SDS_P1;SDS_P2;PMS_P1;PMS_P2;Temp;Humidity;BMP_temperature;BMP_pressure;BME280_temperature;BME280_humidity;BME280_pressure;Samples;Min_cycle;Max_cycle;Signal;HPM_P1;HPM_P2
2022/11/27 00:50:06;;;;;;;;;;;;;;;4.94;76.94;101626.19;5248190;23;4096;-82
2022/11/27 00:55:14;;;;;;;;;;;;;;;4.82;77.51;101624.78;5007999;23;5364;-79
2022/11/27 00:57:41;;;;;;;;;;;;;;;4.87;77.36;101623.31;4902180;29;4830;-79
2022/11/27 01:00:07;;;;;;;;;;;;;;;4.87;77.20;101615.31;4907819;29;3550;-78
2022/11/27 01:02:34;;;;;;;;;;;;;;;4.75;77.86;101617.41;4915741;29;2263;-81
2022/11/27 01:05:00;;;;;;;;;;;;;;;4.89;77.56;101612.50;4903581;29;2362;-79
2022/11/27 01:07:27;;;;;;;;;;;;;;;4.87;77.47;101607.31;4896444;29;2371;-81
2022/11/27 01:09:53;;;;;;;;;;;;;;;4.92;77.23;101618.34;4897654;29;2331;-82
2022/11/27 01:12:20;;;;;;;;;;;;;;;5.03;76.71;101622.59;4901399;29;5141;-81
2022/11/27 01:14:46;;;;;;;;;;;;;;;4.85;77.51;101627.13;4899855;29;5201;-82
2022/11/27 01:17:13;;;;;;;;;;;;;;;4.86;77.47;101634.16;4882739;29;5372;-81
2022/11/27 01:19:39;;;;;;;;;;;;;;;4.91;77.38;101624.69;4895661;29;5362;-81
2022/11/27 01:22:06;;;;;;;;;;;;;;;4.87;77.52;101628.66;4894893;29;5327;-81
2022/11/27 01:24:33;;;;;;;;;;;;;;;4.88;77.47;101625.00;4892242;29;5165;-81
2022/11/27 01:27:01;;;;;;;;;;;;;;;5.05;76.91;101625.09;4894935;29;5315;-81
2022/11/27 01:29:27;;;;;;;;;;;;;;;4.97;76.89;101618.72;4895780;29;5245;-82
2022/11/27 01:31:54;;;;;;;;;;;;;;;4.97;77.07;101623.22;4891825;29;5343;-82
2022/11/27 01:34:20;;;;;;;;;;;;;;;4.92;77.12;101614.84;4895407;29;5376;-82
2022/11/27 01:36:47;;;;;;;;;;;;;;;4.81;77.65;101613.25;4894054;29;5266;-82
2022/11/27 01:39:14;;;;;;;;;;;;;;;4.99;77.05;101610.53;4895133;29;5279;-83
2022/11/27 01:41:40;;;;;;;;;;;;;;;4.96;77.11;101610.88;4879509;29;5214;-82
2022/11/27 01:44:07;;;;;;;;;;;;;;;4.85;77.48;101603.94;4894836;29;5233;-83
2022/11/27 01:46:33;;;;;;;;;;;;;;;4.90;77.30;101611.50;4897497;29;5230;-83
2022/11/27 01:49:02;;;;;;;;;;;;;;;4.93;77.15;101611.19;4898259;29;5235;-84
2022/11/27 01:51:28;;;;;;;;;;;;;;;4.87;77.48;101609.13;4894509;29;5474;-84
2022/11/27 01:53:55;;;;;;;;;;;;;;;4.90;77.28;101607.00;4890538;29;5258;-84
2022/11/27 01:56:21;;;;;;;;;;;;;;;4.89;77.53;101608.00;4878741;29;5183;-80
2022/11/27 01:58:48;;;;;;;;;;;;;;;4.88;77.36;101598.31;4880417;29;5201;-81
2022/11/27 02:01:14;;;;;;;;;;;;;;;4.81;77.61;101594.59;4876132;29;5447;-82
2022/11/27 02:03:41;;;;;;;;;;;;;;;4.97;77.08;101594.69;4875751;29;5147;-81
2022/11/27 02:06:08;;;;;;;;;;;;;;;5.08;76.51;101587.41;4874370;29;5323;-82
2022/11/27 02:08:34;;;;;;;;;;;;;;;5.14;76.43;101586.75;4892171;29;5238;-84
2022/11/27 02:11:01;;;;;;;;;;;;;;;4.92;77.08;101582.81;4892837;29;5163;-83
2022/11/27 02:13:27;;;;;;;;;;;;;;;4.94;77.25;101580.81;4873191;29;5299;-83
2022/11/27 02:15:54;;;;;;;;;;;;;;;4.89;77.20;101572.47;4872319;29;5318;-83
2022/11/27 02:18:20;;;;;;;;;;;;;;;4.90;77.33;101568.78;4890005;29;5400;-83
2022/11/27 02:20:47;;;;;;;;;;;;;;;4.95;77.01;101561.97;4883476;29;5184;-83
2022/11/27 02:23:13;;;;;;;;;;;;;;;4.87;77.31;101561.09;4879706;29;5306;-83
2022/11/27 02:25:40;;;;;;;;;;;;;;;4.84;77.58;101550.72;4895728;29;5330;-82
2022/11/27 02:28:07;;;;;;;;;;;;;;;5.00;77.11;101551.66;4879493;29;5387;-82
2022/11/27 02:30:33;;;;;;;;;;;;;;;5.14;76.54;101538.69;4891881;29;5407;-82
2022/11/27 02:32:59;;;;;;;;;;;;;;;4.95;77.04;101537.94;4894189;29;5185;-81
2022/11/27 02:35:26;;;;;;;;;;;;;;;4.95;77.02;101521.09;4882488;29;5430;-84
2022/11/27 02:37:53;;;;;;;;;;;;;;;5.24;76.18;101507.38;4880744;29;5394;-83
2022/11/27 02:40:19;;;;;;;;;;;;;;;5.03;76.57;101507.78;4894006;29;5249;-84
2022/11/27 02:42:46;;;;;;;;;;;;;;;4.88;77.30;101518.22;4880703;29;5307;-83
2022/11/27 02:45:12;;;;;;;;;;;;;;;4.84;77.47;101524.03;4879919;29;5313;-84
2022/11/27 02:47:39;;;;;;;;;;;;;;;5.03;77.01;101509.59;4868186;29;5183;-84
2022/11/27 02:50:06;;;;;;;;;;;;;;;4.91;77.20;101501.91;4896225;29;5276;-84
2022/11/27 02:52:32;;;;;;;;;;;;;;;4.91;77.32;101507.22;4895475;29;5219;-85
2022/11/27 02:54:59;;;;;;;;;;;;;;;4.92;77.20;101500.88;4894624;29;5316;-85
2022/11/27 02:57:25;;;;;;;;;;;;;;;5.04;76.81;101504.13;4882515;29;5346;-85
2022/11/27 02:59:53;;;;;;;;;;;;;;;4.98;76.97;101516.25;4883072;29;5296;-85
2022/11/27 03:02:19;;;;;;;;;;;;;;;4.96;77.04;101517.41;4882639;29;5309;-84
2022/11/27 03:04:46;;;;;;;;;;;;;;;4.87;77.75;101519.22;4889727;29;2094;-86
2022/11/27 03:07:12;;;;;;;;;;;;;;;4.85;77.53;101521.19;4886601;29;5340;-85
2022/11/27 03:09:39;;;;;;;;;;;;;;;4.94;77.44;101514.94;4880125;29;5304;-86
2022/11/27 03:12:05;;;;;;;;;;;;;;;5.00;77.19;101516.13;4879218;29;5226;-86
2022/11/27 03:14:32;;;;;;;;;;;;;;;4.96;77.10;101512.06;4878266;29;5248;-85
2022/11/27 03:16:58;;;;;;;;;;;;;;;4.94;77.23;101514.06;4881506;29;5254;-86
2022/11/27 03:19:25;;;;;;;;;;;;;;;4.85;77.56;101507.84;4877971;29;5310;-86
2022/11/27 03:21:52;;;;;;;;;;;;;;;5.04;77.01;101514.78;4879098;29;5314;-86
2022/11/27 03:24:18;;;;;;;;;;;;;;;5.05;76.72;101513.78;4894484;29;5301;-86
2022/11/27 03:26:45;;;;;;;;;;;;;;;5.03;76.83;101510.47;4877656;29;5173;-86
2022/11/27 03:29:11;;;;;;;;;;;;;;;5.06;76.53;101504.81;4884148;29;5172;-86
2022/11/27 03:31:38;;;;;;;;;;;;;;;5.01;76.91;101510.59;4887676;29;5572;-86
2022/11/27 03:34:05;;;;;;;;;;;;;;;4.96;77.05;101506.75;4885202;29;5211;-86
2022/11/27 03:36:31;;;;;;;;;;;;;;;4.93;77.19;101515.06;4899172;29;5889;-87
2022/11/27 03:38:58;;;;;;;;;;;;;;;4.87;77.54;101513.03;4897267;29;5271;-86
2022/11/27 03:41:24;;;;;;;;;;;;;;;4.86;77.50;101524.72;4898250;29;5397;-87
2022/11/27 03:43:51;;;;;;;;;;;;;;;4.82;77.78;101528.69;4898360;29;5264;-87
2022/11/27 03:46:17;;;;;;;;;;;;;;;4.87;77.70;101518.38;4885505;29;5490;-88
2022/11/27 03:48:44;;;;;;;;;;;;;;;4.85;77.72;101531.88;4900811;29;5299;-87
2022/11/27 03:51:10;;;;;;;;;;;;;;;4.81;77.90;101525.19;4887897;29;5171;-88
2022/11/27 03:53:37;;;;;;;;;;;;;;;4.87;77.84;101513.88;4882943;29;5523;-87
2022/11/27 03:56:03;;;;;;;;;;;;;;;4.85;77.97;101513.19;4888380;29;5246;-86
2022/11/27 03:58:30;;;;;;;;;;;;;;;4.95;77.42;101516.59;4896134;29;5279;-86
2022/11/27 04:00:57;;;;;;;;;;;;;;;4.91;77.54;101514.38;4883746;29;5451;-87
2022/11/27 04:03:24;;;;;;;;;;;;;;;4.98;77.20;101505.59;4896532;29;5346;-89
2022/11/27 04:05:50;;;;;;;;;;;;;;;4.92;77.39;101497.38;4884746;29;5383;-86
2022/11/27 04:08:17;;;;;;;;;;;;;;;4.95;77.32;101511.25;4882873;29;5348;-86
2022/11/27 04:10:43;;;;;;;;;;;;;;;4.94;77.47;101490.03;4896007;29;5743;-88
2022/11/27 04:13:10;;;;;;;;;;;;;;;4.91;77.47;101482.34;4882067;29;5469;-86
2022/11/27 04:15:37;;;;;;;;;;;;;;;4.86;77.57;101485.50;4899534;29;5420;-87
2022/11/27 04:18:03;;;;;;;;;;;;;;;4.93;77.48;101488.38;4882365;29;5338;-86
2022/11/27 04:20:30;;;;;;;;;;;;;;;4.86;77.71;101480.19;4893441;29;5889;-87
2022/11/27 04:22:56;;;;;;;;;;;;;;;4.91;77.62;101485.88;4882806;29;5420;-88
2022/11/27 04:25:23;;;;;;;;;;;;;;;4.87;77.66;101487.19;4882326;29;5398;-88
2022/11/27 04:27:50;;;;;;;;;;;;;;;4.94;77.34;101488.22;4879067;29;5496;-88
2022/11/27 04:30:16;;;;;;;;;;;;;;;4.85;77.84;101488.31;4881383;29;5287;-87
2022/11/27 04:32:43;;;;;;;;;;;;;;;4.84;77.97;101500.00;4879963;29;5327;-88
2022/11/27 04:35:09;;;;;;;;;;;;;;;4.87;77.79;101483.69;4878429;29;5379;-88
2022/11/27 04:37:36;;;;;;;;;;;;;;;4.86;77.65;101482.00;4878710;29;5374;-87
2022/11/27 04:40:02;;;;;;;;;;;;;;;4.88;77.76;101483.53;4878701;29;5386;-86
2022/11/27 04:42:29;;;;;;;;;;;;;;;4.89;77.63;101484.34;4879802;29;5379;-87
2022/11/27 04:44:56;;;;;;;;;;;;;;;4.84;77.87;101476.81;4895518;29;5434;-88
2022/11/27 04:47:22;;;;;;;;;;;;;;;4.85;78.09;101478.47;4882933;29;5516;-88
2022/11/27 04:49:49;;;;;;;;;;;;;;;4.83;78.01;101480.50;4884227;29;5358;-87
2022/11/27 04:52:16;;;;;;;;;;;;;;;4.82;78.01;101472.63;4879182;29;5454;-88
2022/11/27 04:54:43;;;;;;;;;;;;;;;4.85;78.12;101475.81;4864139;29;5242;-88
2022/11/27 04:57:10;;;;;;;;;;;;;;;4.83;78.02;101469.00;4891901;29;5491;-87
2022/11/27 04:59:37;;;;;;;;;;;;;;;4.85;78.14;101467.81;4879261;29;5380;-88
2022/11/27 05:02:04;;;;;;;;;;;;;;;4.83;78.09;101456.47;4890986;29;5352;-87
2022/11/27 05:04:30;;;;;;;;;;;;;;;4.82;78.00;101460.13;4893361;29;5471;-88
2022/11/27 05:06:57;;;;;;;;;;;;;;;4.88;77.95;101462.19;4894023;29;5257;-88
2022/11/27 05:09:24;;;;;;;;;;;;;;;4.84;78.24;101462.63;4882020;29;5322;-88
2022/11/27 05:11:50;;;;;;;;;;;;;;;4.87;77.98;101456.97;4880603;29;5299;-87
2022/11/27 05:14:17;;;;;;;;;;;;;;;4.84;78.03;101457.31;4879122;29;5330;-89
2022/11/27 05:16:43;;;;;;;;;;;;;;;4.81;78.06;101454.94;4880045;29;5325;-89
2022/11/27 05:19:10;;;;;;;;;;;;;;;4.82;78.20;101465.44;4873801;29;5294;-88
2022/11/27 05:21:37;;;;;;;;;;;;;;;4.82;78.01;101473.47;4876099;29;5368;-89
2022/11/27 05:24:03;;;;;;;;;;;;;;;4.81;78.33;101476.31;4892943;29;5484;-89
2022/11/27 05:26:30;;;;;;;;;;;;;;;4.81;78.28;101486.97;4895391;29;5438;-87
2022/11/27 05:28:56;;;;;;;;;;;;;;;4.85;78.00;101483.00;4895695;29;5419;-88
2022/11/27 05:31:23;;;;;;;;;;;;;;;4.82;78.20;101486.81;4877891;29;5073;-88
2022/11/27 05:33:50;;;;;;;;;;;;;;;4.81;78.41;101482.47;4878854;29;5546;-88
2022/11/27 05:36:16;;;;;;;;;;;;;;;4.83;78.33;101487.66;4877364;29;5226;-88
2022/11/27 05:38:43;;;;;;;;;;;;;;;4.83;78.27;101485.00;4868362;29;5415;-89
2022/11/27 05:41:09;;;;;;;;;;;;;;;4.83;78.31;101479.66;4877447;29;5474;-89
2022/11/27 05:43:36;;;;;;;;;;;;;;;4.83;78.28;101477.00;4895017;29;5298;-90
2022/11/27 05:46:03;;;;;;;;;;;;;;;4.85;78.28;101483.00;4880385;29;5260;-87
2022/11/27 05:48:30;;;;;;;;;;;;;;;4.84;78.21;101482.16;4876886;29;5391;-90
2022/11/27 05:50:56;;;;;;;;;;;;;;;4.84;78.40;101484.00;4878211;29;5286;-89
2022/11/27 05:53:23;;;;;;;;;;;;;;;4.84;78.37;101486.66;4897688;29;5935;-88
2022/11/27 05:55:49;;;;;;;;;;;;;;;4.82;78.42;101478.81;4877771;29;5338;-89
2022/11/27 05:58:17;;;;;;;;;;;;;;;4.83;78.30;101479.66;4897964;29;5312;-89
2022/11/27 06:00:44;;;;;;;;;;;;;;;4.82;78.30;101478.81;4897762;29;5468;-88
2022/11/27 06:03:11;;;;;;;;;;;;;;;4.82;78.34;101472.63;4899627;29;5755;-88
2022/11/27 06:05:37;;;;;;;;;;;;;;;4.81;78.43;101479.81;4894872;29;5686;-88
2022/11/27 06:08:04;;;;;;;;;;;;;;;4.82;78.54;101472.63;4898712;29;5910;-89
2022/11/27 06:10:31;;;;;;;;;;;;;;;4.81;78.34;101468.28;4899544;29;5235;-87
2022/11/27 06:12:58;;;;;;;;;;;;;;;4.84;78.19;101470.66;4902383;29;5310;-89
2022/11/27 06:15:25;;;;;;;;;;;;;;;4.82;78.52;101469.97;4900865;29;5693;-89
2022/11/27 06:17:52;;;;;;;;;;;;;;;4.84;78.23;101465.31;4886695;29;5413;-89
2022/11/27 06:20:20;;;;;;;;;;;;;;;4.84;78.40;101466.13;4900299;29;5296;-89
2022/11/27 06:22:47;;;;;;;;;;;;;;;4.82;78.39;101460.13;4900873;29;5302;-88
2022/11/27 06:25:15;;;;;;;;;;;;;;;4.84;78.43;101462.63;4898551;29;5333;-87
2022/11/27 06:27:42;;;;;;;;;;;;;;;4.83;78.23;101467.16;4899765;29;5305;-87
2022/11/27 06:30:09;;;;;;;;;;;;;;;4.84;78.30;101476.00;4899813;29;5405;-89
2022/11/27 06:32:36;;;;;;;;;;;;;;;4.83;78.53;101474.31;4899576;29;5429;-89
2022/11/27 06:35:02;;;;;;;;;;;;;;;4.89;78.34;101477.19;4899594;29;5417;-90
2022/11/27 06:37:29;;;;;;;;;;;;;;;4.91;77.98;101474.34;4881482;29;5271;-90
2022/11/27 06:39:55;;;;;;;;;;;;;;;4.90;78.21;101472.69;4896443;29;5176;-89
2022/11/27 06:42:22;;;;;;;;;;;;;;;4.84;78.34;101471.47;4898775;29;5552;-89
2022/11/27 06:44:49;;;;;;;;;;;;;;;4.84;78.49;101476.00;4867934;29;5297;-89
2022/11/27 06:47:15;;;;;;;;;;;;;;;4.85;78.32;101473.13;4881676;29;5261;-89
2022/11/27 06:49:42;;;;;;;;;;;;;;;4.84;78.53;101478.66;4897325;29;5382;-89
2022/11/27 06:52:09;;;;;;;;;;;;;;;4.90;78.11;101470.00;4860787;29;5266;-89
2022/11/27 06:54:36;;;;;;;;;;;;;;;4.85;78.33;101465.13;4852141;29;5404;-89
2022/11/27 06:57:02;;;;;;;;;;;;;;;4.85;78.41;101458.97;4869725;29;5463;-89
2022/11/27 06:59:31;;;;;;;;;;;;;;;4.83;78.58;101461.81;4889003;29;5373;-88
2022/11/27 07:01:58;;;;;;;;;;;;;;;4.85;78.38;101472.31;4891880;29;5364;-89
2022/11/27 07:04:25;;;;;;;;;;;;;;;4.84;78.20;101473.31;4899193;29;5404;-89
2022/11/27 07:06:51;;;;;;;;;;;;;;;4.84;78.54;101478.66;4897368;29;5448;-88
2022/11/27 07:09:18;;;;;;;;;;;;;;;4.86;78.22;101480.19;4879683;29;5477;-88
2022/11/27 07:11:44;;;;;;;;;;;;;;;4.86;78.40;101476.66;4897072;29;5328;-88
2022/11/27 07:14:11;;;;;;;;;;;;;;;4.85;78.49;101477.66;4870658;29;5431;-87
2022/11/27 07:16:37;;;;;;;;;;;;;;;4.84;78.54;101476.81;4884682;29;5322;-87
2022/11/27 07:21:53;;;;;;;;;;;;;;;4.84;78.47;101490.16;4868740;29;5388;-87
2022/11/27 07:24:20;;;;;;;;;;;;;;;4.84;78.34;101484.81;4879845;29;5703;-88
2022/11/27 07:26:47;;;;;;;;;;;;;;;4.83;78.69;101493.84;4884643;29;5639;-88
2022/11/27 07:29:13;;;;;;;;;;;;;;;4.84;78.64;101487.50;4886401;29;5372;-87
2022/11/27 07:31:40;;;;;;;;;;;;;;;4.85;78.74;101483.81;4901410;29;5644;-89
2022/11/27 07:34:06;;;;;;;;;;;;;;;4.85;78.30;101485.66;4888349;29;5477;-88
2022/11/27 07:36:33;;;;;;;;;;;;;;;4.84;78.79;101476.81;4887608;29;5465;-88
2022/11/27 07:39:00;;;;;;;;;;;;;;;4.84;78.68;101467.97;4888356;29;5470;-88
2022/11/27 07:41:26;;;;;;;;;;;;;;;4.84;78.76;101471.47;4883104;29;5285;-89
2022/11/27 07:43:53;;;;;;;;;;;;;;;4.84;78.65;101476.81;4886351;29;5679;-88
2022/11/27 07:46:19;;;;;;;;;;;;;;;4.83;78.70;101477.81;4900517;29;5346;-89
2022/11/27 07:48:46;;;;;;;;;;;;;;;4.83;78.44;101472.50;4901884;29;5318;-87
2022/11/27 07:51:12;;;;;;;;;;;;;;;4.83;78.71;101475.16;4901943;29;5794;-87
2022/11/27 07:53:39;;;;;;;;;;;;;;;4.83;78.54;101477.00;4903723;29;5402;-89
2022/11/27 07:56:06;;;;;;;;;;;;;;;4.84;78.64;101489.34;4887487;29;5429;-88
2022/11/27 07:58:32;;;;;;;;;;;;;;;4.83;78.55;101487.66;4885692;29;5371;-88
2022/11/27 08:00:59;;;;;;;;;;;;;;;4.84;78.57;101487.50;4888141;29;5354;-89
2022/11/27 08:03:26;;;;;;;;;;;;;;;4.85;78.58;101475.81;4907770;29;5165;-88
2022/11/27 08:05:52;;;;;;;;;;;;;;;4.84;78.73;101476.00;4874501;29;5289;-89
2022/11/27 08:08:19;;;;;;;;;;;;;;;4.84;78.68;101482.16;4902267;29;5379;-89
2022/11/27 08:10:46;;;;;;;;;;;;;;;4.84;78.73;101479.47;4888517;29;5672;-90
2022/11/27 08:13:13;;;;;;;;;;;;;;;4.82;78.56;101473.47;4899528;29;5451;-89
2022/11/27 08:15:39;;;;;;;;;;;;;;;4.84;78.64;101471.47;4902598;29;5772;-88
2022/11/27 08:18:09;;;;;;;;;;;;;;;4.84;78.57;101476.00;4904088;29;5376;-89
2022/11/27 08:20:36;;;;;;;;;;;;;;;4.84;78.60;101479.47;4870794;29;5291;-89
2022/11/27 08:23:03;;;;;;;;;;;;;;;4.84;78.51;101471.47;4901165;29;5091;-89
2022/11/27 08:25:30;;;;;;;;;;;;;;;4.84;78.63;101476.81;4903405;29;5231;-89
2022/11/27 08:27:57;;;;;;;;;;;;;;;4.84;78.79;101478.66;4886029;29;5167;-90
2022/11/27 08:30:24;;;;;;;;;;;;;;;4.84;78.60;101479.47;4895346;29;5152;-89
2022/11/27 08:32:50;;;;;;;;;;;;;;;4.84;78.60;101474.16;4891086;29;5166;-89
2022/11/27 08:35:17;;;;;;;;;;;;;;;4.85;78.60;101470.47;4908684;29;5192;-90
2022/11/27 08:37:44;;;;;;;;;;;;;;;4.85;78.66;101464.31;4906619;29;5202;-88
2022/11/27 08:40:10;;;;;;;;;;;;;;;4.85;78.52;101461.63;4909877;29;5404;-89
2022/11/27 08:42:37;;;;;;;;;;;;;;;4.85;78.56;101466.97;4912283;29;2301;-88
2022/11/27 08:45:04;;;;;;;;;;;;;;;4.84;78.71;101455.47;4886052;29;5405;-89
2022/11/27 08:47:32;;;;;;;;;;;;;;;4.85;78.69;101449.13;4912370;29;5266;-89
2022/11/27 08:49:59;;;;;;;;;;;;;;;4.84;78.76;101442.13;4896457;29;5318;-89
2022/11/27 08:52:26;;;;;;;;;;;;;;;4.84;78.72;101444.78;4892336;29;5412;-90
2022/11/27 08:54:53;;;;;;;;;;;;;;;4.85;78.52;101450.97;4910710;29;4085;-88
2022/11/27 08:57:20;;;;;;;;;;;;;;;4.84;78.57;101449.28;4895288;29;5337;-89
2022/11/27 08:59:47;;;;;;;;;;;;;;;4.85;78.71;101448.28;4909229;29;5186;-87
2022/11/27 09:02:20;;;;;;;;;;;;;;;4.85;78.65;101449.13;4893889;29;2476;-89
2022/11/27 09:04:46;;;;;;;;;;;;;;;4.83;78.59;101440.47;4892701;29;5423;-89
2022/11/27 09:07:13;;;;;;;;;;;;;;;4.84;78.60;101431.44;4875871;29;5380;-87
2022/11/27 09:09:40;;;;;;;;;;;;;;;4.86;78.56;101428.63;4908082;29;5240;-90
2022/11/27 09:12:07;;;;;;;;;;;;;;;4.85;78.53;101424.25;4880992;29;5849;-89
2022/11/27 09:14:36;;;;;;;;;;;;;;;4.84;78.62;101423.44;4912111;29;5389;-89
2022/11/27 09:17:02;;;;;;;;;;;;;;;4.84;78.49;101418.09;4916759;29;5096;-90
2022/11/27 09:19:31;;;;;;;;;;;;;;;4.86;78.37;101417.94;4917282;29;4961;-89
2022/11/27 09:21:58;;;;;;;;;;;;;;;4.86;78.75;101423.28;4920261;29;4683;-90
2022/11/27 09:24:25;;;;;;;;;;;;;;;4.86;78.65;101432.13;4917265;29;5297;-90
2022/11/27 09:26:52;;;;;;;;;;;;;;;4.86;78.57;101434.78;4920178;29;2402;-90
2022/11/27 09:29:19;;;;;;;;;;;;;;;4.85;78.88;101430.44;4921195;29;2267;-89
2022/11/27 09:31:46;;;;;;;;;;;;;;;4.87;78.63;101438.28;4913316;29;4983;-89
2022/11/27 09:34:13;;;;;;;;;;;;;;;4.85;78.55;101434.94;4913432;29;5184;-90
2022/11/27 09:36:41;;;;;;;;;;;;;;;4.88;78.57;101438.16;4915468;29;2351;-90
2022/11/27 09:39:09;;;;;;;;;;;;;;;4.85;78.60;101430.44;4896246;29;2262;-90
2022/11/27 09:41:38;;;;;;;;;;;;;;;4.87;78.52;101428.44;4916108;29;2298;-91
2022/11/27 09:44:07;;;;;;;;;;;;;;;4.86;78.48;101432.13;4901486;29;5373;-90
2022/11/27 09:46:34;;;;;;;;;;;;;;;4.86;78.63;101433.97;4911566;29;2164;-90
2022/11/27 09:49:01;;;;;;;;;;;;;;;4.86;78.47;101429.47;4911162;29;5271;-90
2022/11/27 09:51:28;;;;;;;;;;;;;;;4.87;78.70;101424.94;4913698;29;5361;-90
2022/11/27 09:53:57;;;;;;;;;;;;;;;4.87;78.65;101431.13;4908166;29;5429;-91
2022/11/27 09:56:24;;;;;;;;;;;;;;;4.87;78.62;101423.09;4918557;29;2412;-91
2022/11/27 09:58:51;;;;;;;;;;;;;;;4.85;78.53;101421.59;4896078;29;2264;-89
2022/11/27 10:01:18;;;;;;;;;;;;;;;4.86;78.48;101417.94;4902999;29;3919;-91
2022/11/27 10:03:45;;;;;;;;;;;;;;;4.85;78.61;101409.06;4892308;29;4545;-89
2022/11/27 10:06:12;;;;;;;;;;;;;;;4.86;78.54;101407.28;4898771;29;2589;-92
2022/11/27 10:08:39;;;;;;;;;;;;;;;4.85;78.50;101414.41;4891787;29;5340;-90
2022/11/27 10:11:06;;;;;;;;;;;;;;;4.85;78.55;101405.56;4896720;29;2308;-92
2022/11/27 10:13:32;;;;;;;;;;;;;;;4.85;78.52;101403.75;4895754;29;2340;-90
2022/11/27 10:15:59;;;;;;;;;;;;;;;4.85;78.61;101403.75;4915568;29;2325;-91
2022/11/27 10:18:26;;;;;;;;;;;;;;;4.88;78.62;101402.59;4912360;29;2451;-91
2022/11/27 10:20:53;;;;;;;;;;;;;;;4.86;78.56;101402.75;4902478;29;2335;-91
2022/11/27 10:23:20;;;;;;;;;;;;;;;4.87;78.63;101398.25;4911941;29;5292;-91
2022/11/27 10:25:49;;;;;;;;;;;;;;;4.86;78.63;101394.75;4897174;29;2560;-90
2022/11/27 10:28:15;;;;;;;;;;;;;;;4.87;78.76;101390.25;4916865;29;2204;-90
2022/11/27 10:30:42;;;;;;;;;;;;;;;4.86;78.53;101393.94;4912642;29;2732;-90
2022/11/27 10:33:09;;;;;;;;;;;;;;;4.86;78.63;101389.41;4883615;29;2376;-90
2022/11/27 10:35:36;;;;;;;;;;;;;;;4.85;78.57;101392.22;4893895;29;5346;-90
2022/11/27 10:38:05;;;;;;;;;;;;;;;4.86;78.75;101386.75;4912743;29;2012;-89
2022/11/27 10:40:32;;;;;;;;;;;;;;;4.87;78.55;101383.06;4901807;29;5201;-90
2022/11/27 10:42:58;;;;;;;;;;;;;;;4.86;78.65;101392.09;4915889;29;1980;-89
2022/11/27 10:45:25;;;;;;;;;;;;;;;4.86;78.80;101389.41;4884989;29;1573;-89
2022/11/27 10:47:51;;;;;;;;;;;;;;;4.86;78.64;101392.09;4885440;29;1509;-89
2022/11/27 10:50:18;;;;;;;;;;;;;;;4.87;78.67;101392.91;4913914;29;1753;-89
2022/11/27 10:52:45;;;;;;;;;;;;;;;4.86;78.67;101380.56;4890359;29;1820;-90
2022/11/27 10:55:13;;;;;;;;;;;;;;;4.87;78.64;101375.06;4889909;29;2466;-91
2022/11/27 10:57:40;;;;;;;;;;;;;;;4.86;78.72;101373.41;4894603;29;4998;-88
2022/11/27 11:00:07;;;;;;;;;;;;;;;4.86;78.65;101375.25;4888288;29;5300;-87
2022/11/27 11:02:34;;;;;;;;;;;;;;;4.85;78.71;101370.88;4864858;29;5365;-86
2022/11/27 11:05:01;;;;;;;;;;;;;;;4.86;78.67;101365.41;4865467;29;5282;-89
2022/11/27 11:07:27;;;;;;;;;;;;;;;4.86;78.72;101361.91;4872216;29;2640;-89
2022/11/27 11:09:54;;;;;;;;;;;;;;;4.87;78.53;101359.03;4878768;29;5080;-90
2022/11/27 11:12:21;;;;;;;;;;;;;;;4.87;78.56;101361.72;4872749;29;5258;-90
2022/11/27 11:14:47;;;;;;;;;;;;;;;4.86;78.70;101357.38;4870274;29;5669;-89
2022/11/27 11:17:14;;;;;;;;;;;;;;;4.88;78.71;101362.53;4874898;29;5247;-90
2022/11/27 11:19:41;;;;;;;;;;;;;;;4.88;78.67;101354.53;4854662;29;5318;-91
2022/11/27 11:22:08;;;;;;;;;;;;;;;4.88;78.79;101352.72;4868783;29;5346;-89
2022/11/27 11:24:34;;;;;;;;;;;;;;;4.87;78.72;101345.69;4886199;29;5303;-90
2022/11/27 11:27:01;;;;;;;;;;;;;;;4.87;78.71;101337.69;4875037;29;5183;-89
2022/11/27 11:29:28;;;;;;;;;;;;;;;4.87;78.66;101345.69;4895723;29;3785;-88
2022/11/27 11:31:54;;;;;;;;;;;;;;;4.86;78.63;101343.22;4891847;29;5315;-89
2022/11/27 11:34:21;;;;;;;;;;;;;;;4.87;78.68;101339.53;4871814;29;5262;-90
2022/11/27 11:36:47;;;;;;;;;;;;;;;4.86;78.70;101338.69;4879845;29;5327;-89
2022/11/27 11:39:14;;;;;;;;;;;;;;;4.87;78.61;101343.03;4865727;29;5243;-90
2022/11/27 11:41:40;;;;;;;;;;;;;;;4.87;78.63;101345.69;4855573;29;5210;-90
2022/11/27 11:44:07;;;;;;;;;;;;;;;4.87;78.73;101347.53;4868645;29;5285;-89
2022/11/27 11:46:35;;;;;;;;;;;;;;;4.86;78.66;101341.38;4866515;29;5329;-88
2022/11/27 11:49:02;;;;;;;;;;;;;;;4.87;78.73;101344.88;4850558;29;5296;-90
2022/11/27 11:51:28;;;;;;;;;;;;;;;4.86;78.72;101337.88;4868161;29;5266;-90
2022/11/27 11:53:55;;;;;;;;;;;;;;;4.86;78.75;101351.22;4873462;29;5455;-91
2022/11/27 11:56:21;;;;;;;;;;;;;;;4.88;78.85;101343.84;4905376;29;5292;-90
2022/11/27 11:58:48;;;;;;;;;;;;;;;4.87;78.86;101347.53;4888322;29;5369;-90
2022/11/27 12:01:14;;;;;;;;;;;;;;;4.87;78.67;101339.53;4911121;29;5410;-90
2022/11/27 12:03:41;;;;;;;;;;;;;;;4.87;78.71;101332.34;4887675;29;5374;-89
2022/11/27 12:06:08;;;;;;;;;;;;;;;4.85;78.62;101334.34;4909422;29;2843;-90
2022/11/27 12:08:34;;;;;;;;;;;;;;;4.87;78.67;101335.03;4906801;29;4896;-90
2022/11/27 12:11:01;;;;;;;;;;;;;;;4.87;78.75;101336.84;4887017;29;5356;-89
2022/11/27 12:13:27;;;;;;;;;;;;;;;4.87;78.76;101340.34;4889024;29;5361;-91
2022/11/27 12:15:54;;;;;;;;;;;;;;;4.88;78.82;101338.53;4887563;29;5484;-89
2022/11/27 12:18:20;;;;;;;;;;;;;;;4.87;78.88;101345.69;4907133;29;5197;-90
2022/11/27 12:20:48;;;;;;;;;;;;;;;4.86;78.77;101338.69;4891881;29;5237;-84
2022/11/27 12:23:14;;;;;;;;;;;;;;;4.87;78.81;101342.19;4916668;29;5366;-89
2022/11/27 12:25:41;;;;;;;;;;;;;;;4.87;84.44;101352.88;4907621;29;5323;-87
2022/11/27 12:28:07;;;;;;;;;;;;;;;4.87;79.86;101347.53;4877330;29;5209;-87
2022/11/27 12:30:34;;;;;;;;;;;;;;;4.90;79.97;101350.72;4872908;29;5754;-87
2022/11/27 12:33:03;;;;;;;;;;;;;;;4.88;80.00;101341.19;4877886;29;5339;-88
2022/11/27 12:35:31;;;;;;;;;;;;;;;4.88;79.84;101334.03;4879378;29;5374;-87
2022/11/27 12:37:58;;;;;;;;;;;;;;;4.88;80.02;101339.38;4874087;29;5419;-86
2022/11/27 12:40:25;;;;;;;;;;;;;;;4.88;80.06;101331.38;4873880;29;5268;-87
2022/11/27 12:42:52;;;;;;;;;;;;;;;4.88;79.75;101327.84;4874828;29;5158;-89
2022/11/27 12:45:18;;;;;;;;;;;;;;;4.88;80.03;101338.53;4873919;29;5364;-88
2022/11/27 12:47:45;;;;;;;;;;;;;;;4.87;79.81;101323.50;4859630;29;5354;-88
2022/11/27 12:50:12;;;;;;;;;;;;;;;4.88;79.82;101330.50;4892074;29;5327;-87
2022/11/27 12:52:39;;;;;;;;;;;;;;;4.87;79.63;101328.84;4894648;29;5441;-88
2022/11/27 12:55:09;;;;;;;;;;;;;;;4.86;79.95;101327.19;4880694;29;5453;-87
2022/11/27 12:57:36;;;;;;;;;;;;;;;4.87;79.80;101329.69;4889905;29;5442;-88
2022/11/27 13:00:03;;;;;;;;;;;;;;;4.88;79.59;101327.84;4891392;29;5483;-87
2022/11/27 13:02:30;;;;;;;;;;;;;;;4.88;79.53;101325.16;4885433;29;5209;-89
2022/11/27 13:04:57;;;;;;;;;;;;;;;4.87;79.77;101323.50;4880169;29;5366;-88
2022/11/27 13:07:23;;;;;;;;;;;;;;;4.86;79.47;101312.00;4895758;29;5370;-87
2022/11/27 13:09:50;;;;;;;;;;;;;;;4.87;79.40;101312.84;4895284;29;5269;-88
2022/11/27 13:12:16;;;;;;;;;;;;;;;4.86;79.35;101309.34;4867898;29;5163;-87
2022/11/27 13:14:43;;;;;;;;;;;;;;;4.86;79.29;101316.50;4881010;29;5589;-87
2022/11/27 13:17:10;;;;;;;;;;;;;;;4.87;79.26;101305.66;4883500;29;5458;-87
2022/11/27 13:19:38;;;;;;;;;;;;;;;4.86;79.36;101306.66;4889456;29;5559;-86
2022/11/27 13:22:05;;;;;;;;;;;;;;;4.87;79.26;101308.31;4893826;29;3690;-86
2022/11/27 13:24:31;;;;;;;;;;;;;;;4.87;79.21;101303.00;4891474;29;5054;-85
2022/11/27 13:26:59;;;;;;;;;;;;;;;4.87;79.35;101294.16;4896340;29;5291;-85
2022/11/27 13:29:26;;;;;;;;;;;;;;;4.87;79.21;101300.31;4880698;29;5382;-86
2022/11/27 13:31:52;;;;;;;;;;;;;;;4.87;79.31;101292.31;4896914;29;5326;-85
2022/11/27 13:34:19;;;;;;;;;;;;;;;4.88;79.19;101282.47;4880896;29;5206;-85
2022/11/27 13:36:45;;;;;;;;;;;;;;;4.87;79.27;101275.47;4880243;29;5288;-85
2022/11/27 13:39:12;;;;;;;;;;;;;;;4.88;79.12;101269.13;4896722;29;5180;-86
2022/11/27 13:41:39;;;;;;;;;;;;;;;4.86;79.12;101261.28;4880138;29;5628;-85
2022/11/27 13:44:06;;;;;;;;;;;;;;;4.88;79.11;101269.13;4895644;29;5404;-84
2022/11/27 13:46:32;;;;;;;;;;;;;;;4.87;79.02;101270.97;4882326;29;5269;-85
2022/11/27 13:49:01;;;;;;;;;;;;;;;4.87;79.02;101267.47;4881093;29;5380;-85